Time;durP1;ratioP1;P1;durP2;ratioP2;P2;SDS_P1;SDS_P2;PMS_P1;PMS_P2;Temp;Humidity;BMP_temperature;BMP_pressure;BME280_temperature;BME280_humidity;BME280_pressure;Samples;Min_cycle;Max_cycle;Signal;HPM_P1;HPM_P2
2023/01/07 00:01:22;;;;;;;27.52;10.35;;;;;;;-9.96;100.00;101826.27;1577262;89;21876;-84
2023/01/07 00:03:50;;;;;;;24.98;9.55;;;;;;;-9.96;100.00;101830.19;1579580;89;21639;-83
2023/01/07 00:06:20;;;;;;;26.20;8.13;;;;;;;-9.99;100.00;101830.37;1580438;89;21047;-85
2023/01/07 00:08:49;;;;;;;25.57;9.05;;;;;;;-10.02;100.00;101833.17;1579822;89;21320;-81
2023/01/07 00:11:19;;;;;;;23.15;9.08;;;;;;;-10.06;100.00;101838.58;1575232;89;21103;-84
2023/01/07 00:13:48;;;;;;;26.80;9.53;;;;;;;-10.07;100.00;101842.09;1579760;89;21606;-82
2023/01/07 00:16:18;;;;;;;24.32;10.08;;;;;;;-10.08;100.00;101852.16;1560626;89;21150;-84
2023/01/07 00:18:45;;;;;;;28.95;9.80;;;;;;;-10.12;100.00;101848.05;1578695;89;21054;-82
2023/01/07 00:21:14;;;;;;;31.17;10.90;;;;;;;-10.12;100.00;101861.55;1576348;89;21094;-85
2023/01/07 00:23:42;;;;;;;25.92;9.93;;;;;;;-10.15;100.00;101856.06;1579948;89;21139;-82
2023/01/07 00:26:16;;;;;;;26.12;9.70;;;;;;;-10.14;100.00;101865.58;1589746;89;21417;-85
2023/01/07 00:28:46;;;;;;;21.48;9.20;;;;;;;-10.20;100.00;101866.42;1598682;89;21077;-83
2023/01/07 00:31:15;;;;;;;24.18;9.28;;;;;;;-10.25;100.00;101868.47;1674757;83;21062;-84
2023/01/07 00:36:10;;;;;;;20.08;8.18;;;;;;;-10.35;100.00;101869.06;1610913;87;21931;-85
2023/01/07 00:38:37;;;;;;;21.75;8.23;;;;;;;-10.37;100.00;101878.73;1609759;87;21480;-83
2023/01/07 00:41:03;;;;;;;24.18;8.93;;;;;;;-10.42;100.00;101877.32;1615921;88;21685;-84
2023/01/07 00:43:30;;;;;;;21.50;8.13;;;;;;;-10.45;100.00;101883.55;1602191;88;21057;-82
2023/01/07 00:45:56;;;;;;;24.60;8.03;;;;;;;-10.46;100.00;101885.80;1641733;84;21059;-88
2023/01/07 00:48:22;;;;;;;24.95;8.28;;;;;;;-10.49;100.00;101887.28;1662969;85;21153;-85
2023/01/07 00:50:50;;;;;;;21.15;8.23;;;;;;;-10.49;100.00;101891.19;1655664;85;21827;-82
2023/01/07 00:53:17;;;;;;;26.42;9.40;;;;;;;-10.50;100.00;101895.17;1657846;84;21300;-87
2023/01/07 00:55:44;;;;;;;22.37;8.43;;;;;;;-10.55;100.00;101892.38;1647030;86;21088;-84
2023/01/07 00:58:18;;;;;;;27.15;9.68;;;;;;;-10.55;100.00;101887.17;1660136;85;21257;-84
2023/01/07 01:00:44;;;;;;;22.52;8.23;;;;;;;-10.56;100.00;101885.52;1624134;86;21037;-85
2023/01/07 01:03:12;;;;;;;25.40;8.73;;;;;;;-10.62;100.00;101887.15;1617766;86;21840;-85
2023/01/07 01:05:39;;;;;;;24.95;8.70;;;;;;;-10.62;100.00;101900.17;1617826;86;21050;-84
2023/01/07 01:08:06;;;;;;;26.10;9.20;;;;;;;-10.63;100.00;101891.99;1620697;87;21155;-82
2023/01/07 01:10:32;;;;;;;26.05;8.83;;;;;;;-10.60;100.00;101892.28;1623834;88;21038;-84
2023/01/07 01:13:00;;;;;;;31.23;10.10;;;;;;;-10.58;100.00;101894.34;1637605;84;21118;-85
2023/01/07 01:15:26;;;;;;;24.92;9.58;;;;;;;-10.65;100.00;101897.75;1691354;82;21348;-83
2023/01/07 01:17:53;;;;;;;28.02;9.30;;;;;;;-10.65;100.00;101898.22;1665575;82;21684;-85
2023/01/07 01:20:19;;;;;;;25.15;8.28;;;;;;;-10.67;100.00;101902.23;1683594;82;21585;-85
2023/01/07 01:22:46;;;;;;;27.27;9.33;;;;;;;-10.72;100.00;101900.35;1687469;82;21564;-85
2023/01/07 01:25:13;;;;;;;26.40;8.75;;;;;;;-10.76;100.00;101906.20;1703831;82;21035;-84
2023/01/07 01:27:39;;;;;;;27.25;9.05;;;;;;;-10.77;100.00;101907.11;1677692;82;21174;-85
2023/01/07 01:30:07;;;;;;;20.77;7.55;;;;;;;-10.79;100.00;101909.45;1688122;82;21092;-85
2023/01/07 01:32:33;;;;;;;21.27;7.53;;;;;;;-10.82;100.00;101913.55;1681606;83;21068;-85
2023/01/07 01:34:59;;;;;;;28.00;8.63;;;;;;;-10.82;100.00;101920.05;1706365;82;22286;-84
2023/01/07 01:37:26;;;;;;;24.37;9.08;;;;;;;-10.83;100.00;101922.26;1716113;80;21026;-88
2023/01/07 01:39:52;;;;;;;28.38;9.38;;;;;;;-10.83;100.00;101928.77;1774160;79;21100;-90
2023/01/07 01:42:23;;;;;;;26.05;9.10;;;;;;;-10.83;100.00;101928.77;1774027;80;21028;-83
2023/01/07 01:44:54;;;;;;;25.50;8.65;;;;;;;-10.83;100.00;101938.71;1775025;80;21071;-85
2023/01/07 01:47:44;;;;;;;25.43;8.03;;;;;;;-10.80;100.00;101934.63;1734661;82;21009;-84
2023/01/07 01:50:31;;;;;;;28.75;9.30;;;;;;;-10.87;100.00;101936.39;1729525;81;20983;-84
2023/01/07 01:53:02;;;;;;;23.60;8.15;;;;;;;-10.92;100.00;101937.11;1746920;81;21075;-82
2023/01/07 01:55:34;;;;;;;23.47;8.90;;;;;;;-10.94;100.00;101930.70;1726040;81;21126;-83
2023/01/07 01:58:05;;;;;;;23.30;8.37;;;;;;;-10.95;100.00;101929.47;1720870;81;20991;-84
2023/01/07 02:00:33;;;;;;;21.42;8.38;;;;;;;-10.98;100.00;101933.92;1745262;81;21027;-84
2023/01/07 02:03:00;;;;;;;19.23;8.10;;;;;;;-11.01;100.00;101946.27;1757448;80;21087;-86
2023/01/07 02:05:31;;;;;;;24.55;8.70;;;;;;;-11.04;100.00;101945.14;1768811;80;21102;-89
2023/01/07 02:07:58;;;;;;;19.35;8.18;;;;;;;-11.06;100.00;101951.75;1726479;81;21106;-83
2023/01/07 02:10:25;;;;;;;22.07;7.80;;;;;;;-11.07;100.00;101955.26;1734698;81;21114;-84
2023/01/07 02:13:35;;;;;;;20.75;8.08;;;;;;;-11.09;100.00;101959.70;1736400;81;21200;-88
2023/01/07 02:16:18;;;;;;;23.87;8.43;;;;;;;-11.07;100.00;101963.53;1729618;81;21188;-84
2023/01/07 02:19:08;;;;;;;24.55;8.68;;;;;;;-11.14;100.00;101950.03;1728349;81;21199;-84
2023/01/07 02:22:21;;;;;;;22.60;8.48;;;;;;;-11.16;100.00;101954.95;1683865;84;21141;-84
2023/01/07 02:25:05;;;;;;;20.70;7.85;;;;;;;-11.18;100.00;101955.02;1687463;83;21078;-82
2023/01/07 02:28:11;;;;;;;28.07;8.25;;;;;;;-11.22;100.00;101956.13;1685604;83;21388;-83
2023/01/07 02:30:49;;;;;;;27.45;9.23;;;;;;;-11.26;100.00;101961.12;1663898;83;21147;-80
2023/01/07 02:33:20;;;;;;;24.85;8.50;;;;;;;-11.26;100.00;101966.33;1680529;84;21204;-83
2023/01/07 02:36:12;;;;;;;29.30;9.83;;;;;;;-11.30;100.00;101960.91;1577557;89;21447;-86
2023/01/07 02:39:05;;;;;;;25.17;9.35;;;;;;;-11.29;100.00;101971.70;1597038;89;21048;-84
2023/01/07 02:41:37;;;;;;;24.45;8.10;;;;;;;-11.30;100.00;101967.41;1589163;89;21127;-85
2023/01/07 02:44:14;;;;;;;22.20;8.00;;;;;;;-11.34;100.00;101971.11;1546801;91;21053;-85
2023/01/07 02:46:48;;;;;;;25.20;8.25;;;;;;;-11.37;100.00;101968.67;1548548;90;21203;-83
2023/01/07 02:52:55;;;;;;;20.72;7.97;;;;;;;-11.41;100.00;101986.22;1561015;91;21226;-82
2023/01/07 02:55:45;;;;;;;25.65;10.10;;;;;;;-11.43;100.00;101984.16;1536769;91;21196;-83
2023/01/07 02:58:28;;;;;;;28.80;10.23;;;;;;;-11.45;100.00;101980.32;1579419;88;21039;-82
2023/01/07 03:01:21;;;;;;;27.55;8.30;;;;;;;-11.49;100.00;101981.42;1549591;91;21783;-81
2023/01/07 03:04:33;;;;;;;23.42;8.48;;;;;;;-11.53;100.00;101978.62;1536245;91;21544;-83
2023/01/07 03:07:55;;;;;;;16.85;6.65;;;;;;;-11.56;100.00;101983.12;1502056;94;21085;-82
2023/01/07 03:10:51;;;;;;;24.85;7.55;;;;;;;-11.56;100.00;101989.16;1499859;94;22004;-85
2023/01/07 03:13:26;;;;;;;24.85;8.50;;;;;;;-11.60;100.00;101988.95;1495937;94;21124;-82
2023/01/07 03:16:11;;;;;;;27.85;8.70;;;;;;;-11.62;100.00;101997.28;1502082;94;21209;-85
2023/01/07 03:18:42;;;;;;;27.87;8.95;;;;;;;-11.66;100.00;101996.61;1468433;95;21156;-84
2023/01/07 03:21:13;;;;;;;26.70;8.18;;;;;;;-11.68;100.00;101998.91;1511525;92;21542;-84
2023/01/07 03:23:43;;;;;;;20.95;7.78;;;;;;;-11.68;100.00;102002.34;1566374;90;21054;-84
2023/01/07 03:26:11;;;;;;;22.75;7.62;;;;;;;-11.70;100.00;102010.70;1572317;89;21631;-84
2023/01/07 03:28:40;;;;;;;20.85;7.28;;;;;;;-11.73;100.00;102008.73;1563741;90;21195;-83
2023/01/07 03:31:11;;;;;;;26.33;8.75;;;;;;;-11.75;100.00;102019.20;1556554;90;21095;-90
2023/01/07 03:33:57;;;;;;;22.65;7.62;;;;;;;-11.75;100.00;102023.09;1545035;90;21763;-84
2023/01/07 03:36:29;;;;;;;24.07;7.28;;;;;;;-11.78;100.00;102023.72;1527151;90;21085;-85
2023/01/07 03:38:56;;;;;;;19.00;6.53;;;;;;;-11.79;100.00;102024.62;1588514;87;21108;-84
2023/01/07 03:44:06;;;;;;;20.95;7.65;;;;;;;-11.79;100.00;102023.33;1660139;85;21213;-89
2023/01/07 03:46:35;;;;;;;25.12;8.43;;;;;;;-11.81;100.00;102031.22;1660953;85;21017;-84
2023/01/07 03:49:01;;;;;;;20.60;7.05;;;;;;;-11.82;100.00;102032.58;1653412;86;21120;-85
2023/01/07 03:51:28;;;;;;;19.40;7.87;;;;;;;-11.85;100.00;102033.64;1659402;86;21100;-87
2023/01/07 03:53:54;;;;;;;19.37;7.70;;;;;;;-11.86;100.00;102041.50;1660393;85;21746;-84
2023/01/07 03:56:20;;;;;;;19.75;7.10;;;;;;;-11.84;100.00;102044.84;1618034;86;21108;-84
2023/01/07 03:58:47;;;;;;;22.67;7.50;;;;;;;-11.87;100.00;102051.06;1648700;86;21116;-90
2023/01/07 04:01:13;;;;;;;20.70;7.72;;;;;;;-11.86;100.00;102051.89;1661627;85;21095;-85
2023/01/07 04:03:39;;;;;;;22.25;8.13;;;;;;;-11.88;100.00;102049.39;1658582;85;21079;-84
2023/01/07 04:06:05;;;;;;;24.65;8.43;;;;;;;-11.91;100.00;102055.58;1660970;85;21177;-88
2023/01/07 04:08:32;;;;;;;22.60;8.13;;;;;;;-11.94;100.00;102058.34;1655776;85;21126;-86
2023/01/07 04:10:58;;;;;;;29.05;9.30;;;;;;;-11.93;100.00;102060.01;1660442;86;21037;-84
2023/01/07 04:13:24;;;;;;;22.65;7.37;;;;;;;-11.93;100.00;102061.31;1661799;85;20993;-86
2023/01/07 04:15:50;;;;;;;24.47;8.33;;;;;;;-11.94;100.00;102058.34;1739944;79;21090;-85
2023/01/07 04:18:17;;;;;;;22.80;8.15;;;;;;;-11.97;100.00;102066.72;1781168;80;21078;-90
2023/01/07 04:20:49;;;;;;;25.25;8.05;;;;;;;-11.96;100.00;102072.32;1770915;80;20971;-84
2023/01/07 04:23:16;;;;;;;21.05;7.35;;;;;;;-11.99;100.00;102077.21;1771362;79;20977;-85
2023/01/07 04:25:47;;;;;;;21.17;7.10;;;;;;;-12.00;100.00;102078.14;1770148;80;21071;-86
2023/01/07 04:28:13;;;;;;;22.02;7.87;;;;;;;-12.03;100.00;102080.03;1763289;80;20937;-84
2023/01/07 04:30:40;;;;;;;27.75;8.70;;;;;;;-12.06;100.00;102077.12;1779883;80;21156;-84
2023/01/07 04:33:06;;;;;;;22.35;7.72;;;;;;;-12.08;100.00;102086.77;1756020;80;21737;-86
2023/01/07 04:35:33;;;;;;;22.30;8.70;;;;;;;-12.09;100.00;102092.03;1755645;80;21046;-85
2023/01/07 04:38:00;;;;;;;27.00;9.18;;;;;;;-12.10;100.00;102094.25;1775353;80;21039;-85
2023/01/07 04:40:26;;;;;;;21.17;7.60;;;;;;;-12.09;100.00;102095.45;1767622;80;20949;-87
2023/01/07 04:42:52;;;;;;;20.92;8.28;;;;;;;-12.09;100.00;102100.66;1772852;80;21116;-91
2023/01/07 04:45:19;;;;;;;26.10;10.30;;;;;;;-12.09;100.00;102105.02;1777910;80;21101;-84
2023/01/07 04:47:45;;;;;;;27.07;8.20;;;;;;;-12.09;100.00;102107.15;1763168;80;21068;-86
2023/01/07 04:50:11;;;;;;;28.17;8.93;;;;;;;-12.09;100.00;102117.55;1765598;80;21122;-84
2023/01/07 04:52:38;;;;;;;26.20;8.55;;;;;;;-12.10;100.00;102117.64;1762860;80;21066;-85
2023/01/07 04:55:05;;;;;;;29.15;8.48;;;;;;;-12.11;100.00;102120.70;1762055;80;21104;-85
2023/01/07 04:57:31;;;;;;;24.43;8.65;;;;;;;-12.10;100.00;102121.53;1776757;80;21000;-85
2023/01/07 04:59:57;;;;;;;24.67;9.30;;;;;;;-12.15;100.00;102130.38;1766034;80;21050;-86
2023/01/07 05:02:23;;;;;;;18.00;7.17;;;;;;;-12.13;100.00;102134.20;1784276;80;21003;-87
2023/01/07 05:04:49;;;;;;;26.02;7.80;;;;;;;-12.16;100.00;102135.66;1775669;79;21003;-84
2023/01/07 05:07:16;;;;;;;22.85;7.45;;;;;;;-12.18;100.00;102136.18;1784804;80;21095;-85
2023/01/07 05:09:42;;;;;;;22.55;9.33;;;;;;;-12.18;100.00;102139.61;1777558;80;21026;-84
2023/01/07 05:12:08;;;;;;;21.23;8.30;;;;;;;-12.20;100.00;102140.62;1776666;80;21018;-85
2023/01/07 05:14:35;;;;;;;19.48;6.97;;;;;;;-12.20;100.00;102144.06;1778030;80;21049;-85
2023/01/07 05:17:01;;;;;;;20.43;7.47;;;;;;;-12.25;100.00;102142.60;1773854;80;21095;-83
2023/01/07 05:19:27;;;;;;;20.23;8.40;;;;;;;-12.25;100.00;102142.60;1779030;80;21245;-86
2023/01/07 05:21:53;;;;;;;26.00;9.03;;;;;;;-12.26;100.00;102148.69;1758539;80;21019;-86
2023/01/07 05:24:19;;;;;;;23.62;8.43;;;;;;;-12.30;100.00;102149.77;1775530;80;21016;-85
2023/01/07 05:26:46;;;;;;;26.65;9.48;;;;;;;-12.32;100.00;102150.28;1775371;80;21499;-85
2023/01/07 05:29:12;;;;;;;26.85;9.08;;;;;;;-12.32;100.00;102150.28;1784705;80;21583;-85
2023/01/07 05:35:19;;;;;;;26.00;9.73;;;;;;;-12.31;100.00;102158.02;1771452;80;21031;-83
2023/01/07 05:41:26;;;;;;;30.48;10.70;;;;;;;-12.32;100.00;102175.83;1767211;80;21005;-84
2023/01/07 05:47:33;;;;;;;27.65;10.28;;;;;;;-12.28;100.00;102177.81;1756678;80;21086;-83
2023/01/07 05:49:59;;;;;;;25.52;8.35;;;;;;;-12.22;100.00;102187.91;1755232;80;21138;-84
2023/01/07 05:52:25;;;;;;;25.40;7.90;;;;;;;-12.23;100.00;102194.03;1758262;80;20983;-82
2023/01/07 05:54:52;;;;;;;21.70;8.70;;;;;;;-12.20;100.00;102189.98;1755726;80;21016;-83
2023/01/07 05:57:18;;;;;;;21.57;7.83;;;;;;;-12.14;100.00;102194.89;1757947;80;21095;-82
2023/01/07 05:59:44;;;;;;;21.80;7.87;;;;;;;-12.13;100.00;102192.20;1768278;80;21147;-84
2023/01/07 06:02:10;;;;;;;21.97;7.62;;;;;;;-12.05;100.00;102194.91;1769035;80;20995;-84
2023/01/07 06:04:37;;;;;;;25.97;8.43;;;;;;;-11.87;100.00;102200.50;1767735;80;21508;-88
2023/01/07 06:07:03;;;;;;;23.83;8.38;;;;;;;-11.62;100.00;102197.48;1773287;80;21552;-83
2023/01/07 06:09:29;;;;;;;21.35;7.97;;;;;;;-11.41;100.00;102206.00;1771140;80;21614;-85
2023/01/07 06:11:59;;;;;;;22.93;7.80;;;;;;;-11.30;100.00;102202.83;1772262;80;21927;-84
2023/01/07 06:14:25;;;;;;;27.65;7.53;;;;;;;-10.51;100.00;102205.60;1772487;79;21488;-84
2023/01/07 06:16:51;;;;;;;27.02;9.23;;;;;;;-9.88;100.00;102213.36;1764761;80;20992;-85
2023/01/07 06:19:17;;;;;;;22.55;7.05;;;;;;;-9.75;100.00;102220.48;1773800;80;21401;-87
2023/01/07 06:21:44;;;;;;;28.25;7.87;;;;;;;-8.77;100.00;102216.81;1771590;80;21349;-84
2023/01/07 06:24:10;;;;;;;18.45;6.53;;;;;;;-7.60;100.00;102219.37;1782098;80;21177;-84
2023/01/07 06:26:36;;;;;;;19.95;6.70;;;;;;;-6.75;100.00;102224.98;1771852;80;21018;-90
2023/01/07 06:29:03;;;;;;;19.73;6.45;;;;;;;-6.11;100.00;102216.97;1748759;80;21189;-86
2023/01/07 06:31:29;;;;;;;24.27;7.15;;;;;;;-5.22;100.00;102210.83;1764833;80;21024;-84
2023/01/07 06:33:55;;;;;;;20.27;7.05;;;;;;;-4.45;100.00;102218.86;1774838;79;21042;-84
2023/01/07 06:36:22;;;;;;;17.42;6.72;;;;;;;-3.71;100.00;102223.81;1782927;80;21077;-85
2023/01/07 06:38:48;;;;;;;15.13;6.22;;;;;;;-3.45;100.00;102227.42;1775537;79;21066;-83
2023/01/07 06:41:14;;;;;;;16.12;6.95;;;;;;;-3.15;100.00;102228.45;1754817;80;21058;-85
2023/01/07 06:47:21;;;;;;;18.67;6.97;;;;;;;-1.90;100.00;102220.66;1776322;80;21003;-86
2023/01/07 06:49:47;;;;;;;21.05;7.65;;;;;;;-1.65;80.90;102216.16;1767946;80;21098;-91
2023/01/07 06:52:13;;;;;;;14.73;6.72;;;;;;;-2.17;81.41;102223.95;1770441;80;20976;-85
2023/01/07 06:54:39;;;;;;;15.60;7.25;;;;;;;-1.54;83.87;102231.02;1761372;80;21082;-84
2023/01/07 06:57:06;;;;;;;19.40;7.08;;;;;;;-1.42;77.30;102225.92;1775614;80;21058;-85
2023/01/07 06:59:32;;;;;;;17.62;7.42;;;;;;;-1.12;74.24;102231.18;1755577;80;21043;-86
2023/01/07 07:01:58;;;;;;;17.90;6.85;;;;;;;-0.59;72.36;102236.75;1767075;79;21120;-86
2023/01/07 07:04:24;;;;;;;17.62;7.22;;;;;;;-0.29;71.44;102239.60;1758328;80;21012;-85
2023/01/07 07:06:51;;;;;;;18.87;7.33;;;;;;;0.09;69.38;102238.17;1776880;80;21119;-85
2023/01/07 07:09:17;;;;;;;17.67;7.30;;;;;;;0.54;68.61;102242.59;1785800;80;20971;-90
2023/01/07 07:17:53;;;;;;;17.23;7.12;;;;;;;3.18;63.59;102255.08;1777158;80;21042;-86
2023/01/07 07:20:19;;;;;;;16.52;7.30;;;;;;;2.66;58.25;102259.45;1779018;80;21595;-85
2023/01/07 07:22:47;;;;;;;17.30;7.28;;;;;;;2.97;60.43;102258.75;1770470;80;21071;-86
2023/01/07 07:25:14;;;;;;;14.68;6.72;;;;;;;3.98;56.93;102258.11;1771455;79;20983;-86
2023/01/07 07:27:46;;;;;;;14.68;7.03;;;;;;;4.31;56.99;102255.25;1766496;80;21259;-85
2023/01/07 07:30:14;;;;;;;24.52;7.42;;;;;;;5.87;57.80;102263.91;1752745;80;20941;-90
2023/01/07 07:32:41;;;;;;;16.10;7.72;;;;;;;6.02;53.91;102262.05;1771307;80;21086;-85
2023/01/07 07:35:08;;;;;;;17.92;7.15;;;;;;;6.54;51.96;102260.95;1775623;80;21340;-85
2023/01/07 07:37:35;;;;;;;15.43;7.35;;;;;;;7.09;50.88;102258.53;1759329;80;21035;-86
2023/01/07 07:40:07;;;;;;;13.83;6.25;;;;;;;7.44;50.07;102259.88;1769378;80;21194;-85
2023/01/07 07:42:34;;;;;;;11.55;6.00;;;;;;;7.34;45.85;102256.73;1769331;79;21051;-86
2023/01/07 07:45:00;;;;;;;11.70;5.92;;;;;;;6.67;43.97;102262.92;1770084;80;21034;-85
2023/01/07 07:47:26;;;;;;;11.95;6.08;;;;;;;5.78;43.35;102273.87;1777673;80;21683;-91
2023/01/07 07:53:33;;;;;;;13.98;6.10;;;;;;;6.05;43.55;102279.06;1778397;79;21410;-86
2023/01/07 07:56:00;;;;;;;14.33;6.25;;;;;;;6.57;43.91;102284.68;1757761;80;20983;-83
2023/01/07 07:58:26;;;;;;;14.53;6.03;;;;;;;6.84;43.32;102292.96;1777595;80;21483;-85
2023/01/07 08:00:52;;;;;;;10.85;5.75;;;;;;;7.63;43.70;102287.33;1775445;79;20999;-83
2023/01/07 08:03:18;;;;;;;12.00;5.95;;;;;;;8.42;42.79;102291.38;1761474;80;21090;-82
2023/01/07 08:05:45;;;;;;;13.18;6.70;;;;;;;8.28;41.44;102297.72;1776391;78;21136;-84
2023/01/07 08:08:14;;;;;;;10.68;5.75;;;;;;;8.75;41.60;102292.77;1779972;80;20996;-83
2023/01/07 08:10:40;;;;;;;10.72;5.75;;;;;;;9.66;41.66;102304.69;1768435;80;21066;-84
2023/01/07 08:16:17;;;;;;;13.32;6.30;;;;;;;8.62;37.85;102303.52;1764052;80;20992;-84
2023/01/07 08:18:44;;;;;;;12.13;6.05;;;;;;;8.85;38.31;102304.45;1775780;79;21098;-85
2023/01/07 08:24:50;;;;;;;11.68;6.03;;;;;;;9.25;37.01;102309.84;1766696;80;21011;-85
2023/01/07 08:27:17;;;;;;;16.30;6.60;;;;;;;8.69;36.86;102308.90;1772511;80;20999;-90
2023/01/07 08:29:43;;;;;;;13.32;5.70;;;;;;;9.18;37.15;102304.47;1770507;80;21535;-86
2023/01/07 08:32:10;;;;;;;19.48;6.20;;;;;;;8.27;34.40;102304.95;1772358;80;21129;-84
2023/01/07 08:34:36;;;;;;;12.50;5.05;;;;;;;4.29;33.84;102308.81;1784747;80;21050;-85
2023/01/07 08:37:02;;;;;;;10.60;4.75;;;;;;;1.83;35.16;102319.77;1779274;80;21078;-83
2023/01/07 08:39:28;;;;;;;13.70;4.97;;;;;;;-0.29;36.07;102324.86;1767110;80;21496;-83
2023/01/07 08:41:55;;;;;;;19.20;5.30;;;;;;;-2.11;37.12;102329.05;1778549;80;20997;-82
2023/01/07 08:44:21;;;;;;;15.10;5.10;;;;;;;-3.41;38.39;102319.77;1759090;80;21136;-83
2023/01/07 08:46:47;;;;;;;13.80;4.62;;;;;;;-4.35;39.92;102320.64;1752569;80;20980;-90
2023/01/07 08:49:15;;;;;;;12.35;4.42;;;;;;;-5.10;42.01;102327.67;1770379;79;21604;-84
2023/01/07 08:51:41;;;;;;;11.78;4.65;;;;;;;-5.32;42.69;102321.87;1784739;80;21457;-84
2023/01/07 08:54:07;;;;;;;14.80;4.72;;;;;;;-5.61;43.30;102321.85;1772052;80;21495;-90
2023/01/07 09:03:55;;;;;;;11.45;4.58;;;;;;;-7.14;43.82;102321.55;1785931;80;21524;-89
2023/01/07 09:06:22;;;;;;;14.23;5.03;;;;;;;-7.36;45.14;102314.25;1762177;79;21046;-83
2023/01/07 09:08:48;;;;;;;17.35;5.25;;;;;;;-7.29;44.99;102310.75;1776819;79;21046;-82
2023/01/07 09:11:15;;;;;;;13.90;5.08;;;;;;;-7.60;45.26;102314.06;1768280;80;21181;-83
2023/01/07 09:13:41;;;;;;;15.63;4.70;;;;;;;-7.75;45.52;102304.59;1781047;80;21011;-83
2023/01/07 09:16:08;;;;;;;12.50;4.85;;;;;;;-7.83;46.16;102303.28;1757710;80;21012;-89
2023/01/07 09:18:34;;;;;;;15.15;5.95;;;;;;;-7.96;45.96;102300.25;1768517;80;21050;-84
2023/01/07 09:24:42;;;;;;;19.67;6.87;;;;;;;-8.10;48.47;102292.80;1774281;80;21102;-85
2023/01/07 09:27:09;;;;;;;13.08;5.30;;;;;;;-8.06;48.91;102296.05;1766034;80;21591;-81
2023/01/07 09:29:38;;;;;;;15.00;5.28;;;;;;;-8.06;47.88;102287.77;1771288;80;21605;-83
2023/01/07 09:32:04;;;;;;;18.12;5.92;;;;;;;-8.31;48.18;102292.83;1763592;80;20997;-83
2023/01/07 09:34:31;;;;;;;14.65;5.70;;;;;;;-8.41;49.31;102283.45;1764661;80;21058;-85
2023/01/07 09:36:57;;;;;;;11.95;5.05;;;;;;;-8.55;49.05;102282.98;1773288;80;21542;-91
2023/01/07 09:39:23;;;;;;;13.72;5.15;;;;;;;-8.52;50.32;102285.41;1769702;80;21019;-88
2023/01/07 09:42:12;;;;;;;17.65;5.40;;;;;;;-8.42;50.08;102284.36;1781580;80;21109;-83
2023/01/07 09:45:06;;;;;;;18.52;5.22;;;;;;;-8.34;51.21;102287.32;1773991;80;20944;-81
2023/01/07 09:47:36;;;;;;;19.05;5.65;;;;;;;-8.30;49.67;102282.27;1778907;80;21492;-83
2023/01/07 09:50:25;;;;;;;18.52;5.85;;;;;;;-8.47;49.97;102266.37;1757097;80;21121;-84
2023/01/07 09:52:56;;;;;;;13.80;4.28;;;;;;;-8.46;49.77;102278.49;1709868;83;21559;-84
2023/01/07 09:55:38;;;;;;;14.80;5.35;;;;;;;-8.52;50.68;102278.03;1717231;83;21200;-83
2023/01/07 10:02:38;;;;;;;14.33;5.08;;;;;;;-8.71;51.03;102268.69;1712985;83;20975;-84
2023/01/07 10:05:15;;;;;;;17.90;6.17;;;;;;;-8.64;51.29;102272.26;1709912;83;21103;-84
2023/01/07 10:07:49;;;;;;;13.62;5.03;;;;;;;-8.70;51.70;102267.77;1704913;83;21031;-85
2023/01/07 10:10:30;;;;;;;14.80;5.55;;;;;;;-8.61;51.86;102260.31;1620646;86;21083;-84
2023/01/07 10:13:17;;;;;;;13.32;4.83;;;;;;;-8.64;52.48;102264.42;1591114;89;21013;-83
2023/01/07 10:15:51;;;;;;;12.53;5.17;;;;;;;-8.58;52.61;102267.48;1572248;89;21082;-84
2023/01/07 10:18:45;;;;;;;14.30;5.25;;;;;;;-8.70;52.90;102262.55;1563477;89;21168;-89
2023/01/07 10:24:56;;;;;;;16.82;4.78;;;;;;;-8.55;54.20;102266.47;1580205;89;21157;-83
2023/01/07 10:27:30;;;;;;;11.20;4.25;;;;;;;-8.40;53.72;102274.66;1596985;89;21569;-82
2023/01/07 10:30:01;;;;;;;12.58;4.33;;;;;;;-8.43;53.02;102274.02;1583659;90;21109;-82
2023/01/07 10:32:32;;;;;;;16.02;5.15;;;;;;;-8.53;53.26;102275.03;1589162;89;21106;-83
2023/01/07 10:35:00;;;;;;;12.00;4.42;;;;;;;-8.54;53.38;102271.58;1599429;87;21624;-84
2023/01/07 10:37:39;;;;;;;11.03;4.28;;;;;;;-8.55;53.31;102269.08;1599022;87;21061;-85
2023/01/07 10:40:40;;;;;;;12.28;4.40;;;;;;;-8.60;53.39;102273.73;1599410;87;21093;-86
2023/01/07 10:43:41;;;;;;;14.68;4.67;;;;;;;-8.53;54.39;102271.11;1601016;88;21642;-86
2023/01/07 10:46:24;;;;;;;9.68;3.83;;;;;;;-8.47;53.50;102275.95;1523465;92;22166;-86
2023/01/07 10:49:14;;;;;;;17.77;4.22;;;;;;;-8.42;53.63;102268.69;1579112;86;21562;-84
2023/01/07 10:52:12;;;;;;;11.20;4.50;;;;;;;-8.35;53.21;102263.43;1649397;85;21043;-83
2023/01/07 10:54:59;;;;;;;12.33;4.58;;;;;;;-8.47;53.22;102262.45;1551403;90;21076;-85
2023/01/07 10:57:27;;;;;;;14.60;4.85;;;;;;;-8.38;54.38;102260.17;1549339;90;21140;-83
2023/01/07 11:03:36;;;;;;;13.60;4.28;;;;;;;-8.38;53.83;102254.48;1549754;90;21353;-84
2023/01/07 11:06:07;;;;;;;16.42;4.95;;;;;;;-8.48;53.76;102262.53;1549284;91;21596;-84
2023/01/07 11:08:40;;;;;;;13.68;4.90;;;;;;;-8.49;53.68;102266.09;1528285;92;21295;-84
2023/01/07 11:11:08;;;;;;;;;;;;;;;-8.55;54.57;102263.85;1531513;92;21846;-84
2023/01/07 11:13:37;;;;;;;12.15;4.42;;;;;;;-8.49;54.69;102266.09;1528690;92;21328;-84
2023/01/07 11:16:12;;;;;;;8.80;3.75;;;;;;;-8.45;54.98;102270.18;1529243;92;21109;-84
2023/01/07 11:22:33;;;;;;;13.30;4.05;;;;;;;-8.40;54.77;102269.91;1473599;96;21239;-82
2023/01/07 11:25:03;;;;;;;10.13;4.97;;;;;;;-8.37;54.44;102270.52;1503655;94;21107;-83
2023/01/07 11:27:33;;;;;;;14.38;4.17;;;;;;;-8.40;54.26;102275.97;1507980;94;21815;-82
2023/01/07 11:30:09;;;;;;;11.78;4.15;;;;;;;-8.41;54.62;102273.44;1508169;94;21142;-82
2023/01/07 11:32:39;;;;;;;13.78;4.60;;;;;;;-8.41;54.65;102274.74;1517936;93;21550;-84
2023/01/07 11:35:10;;;;;;;14.00;4.17;;;;;;;-8.37;54.93;102277.05;1517300;94;21148;-84
2023/01/07 11:37:40;;;;;;;9.35;4.12;;;;;;;-8.34;55.34;102279.95;1519138;93;21061;-86
2023/01/07 11:40:17;;;;;;;16.80;5.60;;;;;;;-8.33;55.59;102279.84;1519353;93;22160;-84
2023/01/07 11:42:56;;;;;;;16.77;4.70;;;;;;;-8.25;55.88;102281.52;1512825;94;21084;-84
2023/01/07 11:45:48;;;;;;;15.95;4.70;;;;;;;-8.22;54.84;102286.55;1520445;93;21627;-84
2023/01/07 11:48:36;;;;;;;12.07;4.42;;;;;;;-8.31;55.25;102283.68;1517150;93;21105;-84
2023/01/07 11:51:10;;;;;;;13.13;5.00;;;;;;;-8.29;55.72;102291.80;1527615;92;21703;-84
2023/01/07 11:53:44;;;;;;;13.05;5.28;;;;;;;-8.23;56.17;102280.13;1540657;92;21298;-84
2023/01/07 11:56:22;;;;;;;12.50;5.10;;;;;;;-8.20;55.76;102285.17;1541812;92;21616;-85
2023/01/07 11:58:53;;;;;;;13.62;4.85;;;;;;;-8.25;55.81;102290.67;1543249;92;21056;-81
2023/01/07 12:01:22;;;;;;;13.48;4.75;;;;;;;-8.27;56.12;102291.22;1536584;92;21080;-83
2023/01/07 12:04:01;;;;;;;12.95;4.47;;;;;;;-8.26;56.78;102286.86;1541119;91;21111;-83
2023/01/07 12:06:37;;;;;;;13.58;4.72;;;;;;;-8.18;56.13;102300.27;1642941;86;21194;-90
2023/01/07 12:09:23;;;;;;;11.95;4.42;;;;;;;-8.26;56.54;102296.84;1647900;87;21094;-84
2023/01/07 12:15:49;;;;;;;15.63;4.53;;;;;;;-8.24;57.08;102298.04;1705290;80;21011;-85
2023/01/07 12:18:48;;;;;;;13.35;4.90;;;;;;;-8.20;57.34;102300.86;1665347;84;20991;-84
2023/01/07 12:21:39;;;;;;;15.93;5.17;;;;;;;-8.20;57.45;102297.41;1662570;85;21874;-84
2023/01/07 12:24:35;;;;;;;12.00;5.03;;;;;;;-8.20;57.29;102298.72;1676737;85;21017;-87
2023/01/07 12:27:21;;;;;;;14.00;4.15;;;;;;;-8.20;57.34;102302.64;1678735;84;21081;-84
2023/01/07 12:33:42;;;;;;;14.18;4.40;;;;;;;-8.30;57.12;102301.88;1678397;85;21600;-84
2023/01/07 12:36:20;;;;;;;11.75;4.50;;;;;;;-8.35;57.26;102307.87;1597984;89;21109;-84
2023/01/07 12:38:51;;;;;;;11.00;4.15;;;;;;;-8.38;57.42;102309.84;1516452;94;20988;-84
2023/01/07 12:41:25;;;;;;;13.80;4.83;;;;;;;-8.36;57.75;102307.95;1483510;95;21153;-91
2023/01/07 12:44:05;;;;;;;13.62;5.28;;;;;;;-8.35;58.13;102309.62;1483459;96;21602;-85